Aérodrome :
LOGIN :

S'inscrire | Disclaimer

   EN    FR    IT 

 










Légende :    VFR   VFR Marginal   IFR   IFR Intensif   IFR Très Intensif
Visi : 
Plafond : 
>= 8 km
>= 3000ft
5 à 8 km
1000 à 3000 ft
1500m à 5 km
500 à 1000 ft
800 à 1500m
200 à 500 ft
< 800m
< 200 ft
Symboles :   Orages  Brouillard  Fortes neiges  Fortes précipitations  Vent > 20 kt
SIGMETs :   Divers  Orages  Givrage  Turbulence  Onde Orograph.  Cendres Volcan.







- Altitude de l'aérodrome : 1649 ft
- Code IATA : HHN


EDFH - Frankfurt-Hahn Rhineland-Palatinate

DERNIER METAR :
  • 190920Z 26010KT 240V310 9999 FEW027 17/10 Q1018

METARs EXPIRÉS :
  • 190850Z 28007KT 250V320 9999 FEW021 17/11 Q1018
  • 190820Z 26008KT 220V300 CAVOK 17/11 Q1018
  • 190750Z 25008KT 220V310 CAVOK 16/11 Q1017
  • 190720Z 26007KT 230V300 9999 FEW015 15/12 Q1017
  • 190650Z 26007KT 240V300 CAVOK 15/12 Q1017

TAF TAF EDFH
Valide du 19 à 06h jusqu'au 20 à 06h UTC


190500Z 1906/2006 26008KT 9999 FEW030
PROB30
TEMPO 1906/1908 BKN005
Pas de NOTAMs connus pour ce terrain.



MET'MAP, la Météo Aéronautique d'un coup d'oeil ! - Copyright ORBIFLY Décembre 2007 - Disclaimer

ORBIFLY MET'MAP TEAM :

Programmation & Développement : Alexandra Zaïnal
Conception & Développement : Baudouin d'Aumeries
Co-Programmation & Développement : Marc-Olivier Méhu
Soutien technique & logistique : Manuel Goepfert

Contact : metmap@orbifly.com




SOURCES & CREDITS :

   NOAA